sensor_id;sensor_type;location;lat;lon;timestamp;temperature;humidity
20479;DHT22;10398;52.490;13.434;2024-01-16T00:00:15;4.10;99.90
20479;DHT22;10398;52.490;13.434;2024-01-16T00:02:41;4.00;99.90
20479;DHT22;10398;52.490;13.434;2024-01-16T00:05:07;4.20;99.90
20479;DHT22;10398;52.490;13.434;2024-01-16T00:07:32;4.10;99.90
20479;DHT22;10398;52.490;13.434;2024-01-16T00:10:00;4.20;99.90
20479;DHT22;10398;52.490;13.434;2024-01-16T00:12:25;4.20;99.90
20479;DHT22;10398;52.490;13.434;2024-01-16T00:14:52;4.10;99.90
20479;DHT22;10398;52.490;13.434;2024-01-16T00:17:17;4.00;99.90
20479;DHT22;10398;52.490;13.434;2024-01-16T00:19:43;3.90;99.90
20479;DHT22;10398;52.490;13.434;2024-01-16T00:22:08;3.80;99.90
20479;DHT22;10398;52.490;13.434;2024-01-16T00:24:34;3.80;99.90
20479;DHT22;10398;52.490;13.434;2024-01-16T00:27:00;3.80;99.90
20479;DHT22;10398;52.490;13.434;2024-01-16T00:29:25;3.70;99.90
20479;DHT22;10398;52.490;13.434;2024-01-16T00:31:51;3.60;99.90
20479;DHT22;10398;52.490;13.434;2024-01-16T00:34:16;3.50;99.90
20479;DHT22;10398;52.490;13.434;2024-01-16T00:36:42;3.30;99.90
20479;DHT22;10398;52.490;13.434;2024-01-16T00:39:08;3.40;99.90
20479;DHT22;10398;52.490;13.434;2024-01-16T00:41:34;3.50;99.90
20479;DHT22;10398;52.490;13.434;2024-01-16T00:44:00;3.30;99.90
20479;DHT22;10398;52.490;13.434;2024-01-16T00:46:25;3.30;99.90
20479;DHT22;10398;52.490;13.434;2024-01-16T00:48:51;3.30;99.90
20479;DHT22;10398;52.490;13.434;2024-01-16T00:51:17;3.30;99.90
20479;DHT22;10398;52.490;13.434;2024-01-16T00:53:43;3.10;99.90
20479;DHT22;10398;52.490;13.434;2024-01-16T00:56:09;3.00;99.90
20479;DHT22;10398;52.490;13.434;2024-01-16T00:58:35;2.90;99.90
20479;DHT22;10398;52.490;13.434;2024-01-16T01:01:01;2.80;99.90
20479;DHT22;10398;52.490;13.434;2024-01-16T01:03:26;2.90;99.90
20479;DHT22;10398;52.490;13.434;2024-01-16T01:05:52;3.00;99.90
20479;DHT22;10398;52.490;13.434;2024-01-16T01:08:18;3.20;99.90
20479;DHT22;10398;52.490;13.434;2024-01-16T01:10:44;3.20;99.90
20479;DHT22;10398;52.490;13.434;2024-01-16T01:13:10;3.10;99.90
20479;DHT22;10398;52.490;13.434;2024-01-16T01:15:35;3.00;99.90
20479;DHT22;10398;52.490;13.434;2024-01-16T01:18:01;3.00;99.90
20479;DHT22;10398;52.490;13.434;2024-01-16T01:20:27;3.10;99.90
20479;DHT22;10398;52.490;13.434;2024-01-16T01:22:52;3.20;99.90
20479;DHT22;10398;52.490;13.434;2024-01-16T01:25:18;3.20;99.90
20479;DHT22;10398;52.490;13.434;2024-01-16T01:27:45;3.10;99.90
20479;DHT22;10398;52.490;13.434;2024-01-16T01:30:11;3.00;99.90
20479;DHT22;10398;52.490;13.434;2024-01-16T01:32:37;2.90;99.90
20479;DHT22;10398;52.490;13.434;2024-01-16T01:35:04;2.90;99.90
20479;DHT22;10398;52.490;13.434;2024-01-16T01:37:30;3.00;99.90
20479;DHT22;10398;52.490;13.434;2024-01-16T01:39:56;3.10;99.90
20479;DHT22;10398;52.490;13.434;2024-01-16T01:42:21;3.10;99.90
20479;DHT22;10398;52.490;13.434;2024-01-16T01:44:47;3.00;99.90
20479;DHT22;10398;52.490;13.434;2024-01-16T01:47:13;3.00;99.90
20479;DHT22;10398;52.490;13.434;2024-01-16T01:49:40;3.20;99.90
20479;DHT22;10398;52.490;13.434;2024-01-16T01:52:06;3.20;99.90
20479;DHT22;10398;52.490;13.434;2024-01-16T01:54:35;3.10;99.90
20479;DHT22;10398;52.490;13.434;2024-01-16T01:57:01;3.10;99.90
20479;DHT22;10398;52.490;13.434;2024-01-16T01:59:27;3.00;99.90
20479;DHT22;10398;52.490;13.434;2024-01-16T02:01:55;3.00;99.90
20479;DHT22;10398;52.490;13.434;2024-01-16T02:04:21;3.10;99.90
20479;DHT22;10398;52.490;13.434;2024-01-16T02:06:48;3.10;99.90
20479;DHT22;10398;52.490;13.434;2024-01-16T02:09:14;3.10;99.90
20479;DHT22;10398;52.490;13.434;2024-01-16T02:11:40;3.20;99.90
20479;DHT22;10398;52.490;13.434;2024-01-16T02:14:06;3.20;99.90
20479;DHT22;10398;52.490;13.434;2024-01-16T02:16:38;3.20;99.90
20479;DHT22;10398;52.490;13.434;2024-01-16T02:19:04;3.20;99.90
20479;DHT22;10398;52.490;13.434;2024-01-16T02:21:57;3.20;99.90
20479;DHT22;10398;52.490;13.434;2024-01-16T02:24:20;3.10;99.90
20479;DHT22;10398;52.490;13.434;2024-01-16T02:26:46;3.20;99.90
20479;DHT22;10398;52.490;13.434;2024-01-16T02:29:12;3.20;99.90
20479;DHT22;10398;52.490;13.434;2024-01-16T02:31:38;3.20;99.90
20479;DHT22;10398;52.490;13.434;2024-01-16T02:34:04;3.20;99.90
20479;DHT22;10398;52.490;13.434;2024-01-16T02:36:30;3.20;99.90
20479;DHT22;10398;52.490;13.434;2024-01-16T02:38:56;3.20;99.90
20479;DHT22;10398;52.490;13.434;2024-01-16T02:41:21;3.10;99.90
20479;DHT22;10398;52.490;13.434;2024-01-16T02:43:47;3.10;99.90
20479;DHT22;10398;52.490;13.434;2024-01-16T02:46:14;3.20;99.90
20479;DHT22;10398;52.490;13.434;2024-01-16T02:48:40;3.20;99.90
20479;DHT22;10398;52.490;13.434;2024-01-16T02:51:08;3.20;99.90
20479;DHT22;10398;52.490;13.434;2024-01-16T02:53:33;3.20;99.90
20479;DHT22;10398;52.490;13.434;2024-01-16T02:55:59;3.30;99.90
20479;DHT22;10398;52.490;13.434;2024-01-16T02:58:29;3.40;99.90
20479;DHT22;10398;52.490;13.434;2024-01-16T03:00:55;3.40;99.90
20479;DHT22;10398;52.490;13.434;2024-01-16T03:03:21;3.30;99.90
20479;DHT22;10398;52.490;13.434;2024-01-16T03:05:47;3.10;99.90
20479;DHT22;10398;52.490;13.434;2024-01-16T03:08:13;3.10;99.90
20479;DHT22;10398;52.490;13.434;2024-01-16T03:10:39;3.00;99.90
20479;DHT22;10398;52.490;13.434;2024-01-16T03:13:04;2.80;99.90
20479;DHT22;10398;52.490;13.434;2024-01-16T03:15:30;2.90;99.90
20479;DHT22;10398;52.490;13.434;2024-01-16T03:17:57;3.00;99.90
20479;DHT22;10398;52.490;13.434;2024-01-16T03:20:23;3.00;99.90
20479;DHT22;10398;52.490;13.434;2024-01-16T03:22:49;3.00;99.90
20479;DHT22;10398;52.490;13.434;2024-01-16T03:25:17;2.80;99.90
20479;DHT22;10398;52.490;13.434;2024-01-16T03:27:43;2.70;99.90
20479;DHT22;10398;52.490;13.434;2024-01-16T03:30:10;2.70;99.90
20479;DHT22;10398;52.490;13.434;2024-01-16T03:32:39;2.70;99.90
20479;DHT22;10398;52.490;13.434;2024-01-16T03:35:06;2.80;99.90
20479;DHT22;10398;52.490;13.434;2024-01-16T03:37:32;2.80;99.90
20479;DHT22;10398;52.490;13.434;2024-01-16T03:39:58;2.80;99.90
20479;DHT22;10398;52.490;13.434;2024-01-16T03:42:24;2.70;99.90
20479;DHT22;10398;52.490;13.434;2024-01-16T03:44:50;2.70;99.90
20479;DHT22;10398;52.490;13.434;2024-01-16T03:47:16;2.80;99.90
20479;DHT22;10398;52.490;13.434;2024-01-16T03:49:42;2.70;99.90
20479;DHT22;10398;52.490;13.434;2024-01-16T03:52:07;2.60;99.90
20479;DHT22;10398;52.490;13.434;2024-01-16T03:54:33;2.60;99.90
20479;DHT22;10398;52.490;13.434;2024-01-16T03:57:02;2.60;99.90
20479;DHT22;10398;52.490;13.434;2024-01-16T03:59:27;2.70;99.90
20479;DHT22;10398;52.490;13.434;2024-01-16T04:01:53;2.80;99.90
20479;DHT22;10398;52.490;13.434;2024-01-16T04:04:19;2.80;99.90
20479;DHT22;10398;52.490;13.434;2024-01-16T04:06:46;2.70;99.90
20479;DHT22;10398;52.490;13.434;2024-01-16T04:09:12;2.70;99.90
20479;DHT22;10398;52.490;13.434;2024-01-16T04:11:39;2.70;99.90
20479;DHT22;10398;52.490;13.434;2024-01-16T04:14:04;2.90;99.90
20479;DHT22;10398;52.490;13.434;2024-01-16T04:16:30;2.90;99.90
20479;DHT22;10398;52.490;13.434;2024-01-16T04:18:56;2.90;99.90
20479;DHT22;10398;52.490;13.434;2024-01-16T04:21:21;2.90;99.90
20479;DHT22;10398;52.490;13.434;2024-01-16T04:23:47;2.70;99.90
20479;DHT22;10398;52.490;13.434;2024-01-16T04:26:13;2.70;99.90
20479;DHT22;10398;52.490;13.434;2024-01-16T04:28:38;2.70;99.90
20479;DHT22;10398;52.490;13.434;2024-01-16T04:31:04;2.70;99.90
20479;DHT22;10398;52.490;13.434;2024-01-16T04:33:30;2.70;99.90
20479;DHT22;10398;52.490;13.434;2024-01-16T04:35:56;2.60;99.90
20479;DHT22;10398;52.490;13.434;2024-01-16T04:38:22;2.60;99.90
20479;DHT22;10398;52.490;13.434;2024-01-16T04:40:49;2.60;99.90
20479;DHT22;10398;52.490;13.434;2024-01-16T04:43:14;2.70;99.90
20479;DHT22;10398;52.490;13.434;2024-01-16T04:45:40;2.70;99.90
20479;DHT22;10398;52.490;13.434;2024-01-16T04:48:06;2.70;99.90
20479;DHT22;10398;52.490;13.434;2024-01-16T04:50:32;2.70;99.90
20479;DHT22;10398;52.490;13.434;2024-01-16T04:52:58;2.70;99.90
20479;DHT22;10398;52.490;13.434;2024-01-16T04:55:28;2.80;99.90
20479;DHT22;10398;52.490;13.434;2024-01-16T04:57:55;2.90;99.90
20479;DHT22;10398;52.490;13.434;2024-01-16T05:00:21;2.90;99.90
20479;DHT22;10398;52.490;13.434;2024-01-16T05:02:47;2.90;99.90
20479;DHT22;10398;52.490;13.434;2024-01-16T05:05:13;2.90;99.90
20479;DHT22;10398;52.490;13.434;2024-01-16T05:07:40;2.90;99.90
20479;DHT22;10398;52.490;13.434;2024-01-16T05:10:12;2.90;99.90
20479;DHT22;10398;52.490;13.434;2024-01-16T05:12:41;2.80;99.90
20479;DHT22;10398;52.490;13.434;2024-01-16T05:15:07;2.70;99.90
20479;DHT22;10398;52.490;13.434;2024-01-16T05:17:34;2.70;99.90
20479;DHT22;10398;52.490;13.434;2024-01-16T05:20:01;2.70;99.90
20479;DHT22;10398;52.490;13.434;2024-01-16T05:22:29;2.70;99.90
20479;DHT22;10398;52.490;13.434;2024-01-16T05:24:55;2.60;99.90
20479;DHT22;10398;52.490;13.434;2024-01-16T05:27:23;2.50;99.90
20479;DHT22;10398;52.490;13.434;2024-01-16T05:29:49;2.50;99.90
20479;DHT22;10398;52.490;13.434;2024-01-16T05:32:14;2.50;99.90
20479;DHT22;10398;52.490;13.434;2024-01-16T05:34:40;2.60;99.90
20479;DHT22;10398;52.490;13.434;2024-01-16T05:37:06;2.50;99.90
20479;DHT22;10398;52.490;13.434;2024-01-16T05:39:31;2.50;99.90
20479;DHT22;10398;52.490;13.434;2024-01-16T05:41:57;2.50;99.90
20479;DHT22;10398;52.490;13.434;2024-01-16T05:44:23;2.50;99.90
20479;DHT22;10398;52.490;13.434;2024-01-16T05:46:48;2.50;99.90
20479;DHT22;10398;52.490;13.434;2024-01-16T05:49:14;2.50;99.90
20479;DHT22;10398;52.490;13.434;2024-01-16T05:51:39;2.50;99.90
20479;DHT22;10398;52.490;13.434;2024-01-16T05:54:05;2.50;99.90
20479;DHT22;10398;52.490;13.434;2024-01-16T05:56:31;2.40;99.90
20479;DHT22;10398;52.490;13.434;2024-01-16T05:58:57;2.40;99.90
20479;DHT22;10398;52.490;13.434;2024-01-16T06:01:23;2.30;99.90
20479;DHT22;10398;52.490;13.434;2024-01-16T06:03:48;2.30;99.90
20479;DHT22;10398;52.490;13.434;2024-01-16T06:06:14;2.30;99.90
20479;DHT22;10398;52.490;13.434;2024-01-16T06:08:40;2.40;99.90
20479;DHT22;10398;52.490;13.434;2024-01-16T06:11:06;2.40;99.90
20479;DHT22;10398;52.490;13.434;2024-01-16T06:13:31;2.30;99.90
20479;DHT22;10398;52.490;13.434;2024-01-16T06:15:58;2.40;99.90
20479;DHT22;10398;52.490;13.434;2024-01-16T06:18:23;2.40;99.90
20479;DHT22;10398;52.490;13.434;2024-01-16T06:20:49;2.40;99.90
20479;DHT22;10398;52.490;13.434;2024-01-16T06:23:15;2.40;99.90
20479;DHT22;10398;52.490;13.434;2024-01-16T06:25:40;2.40;99.90
20479;DHT22;10398;52.490;13.434;2024-01-16T06:28:06;2.40;99.90
20479;DHT22;10398;52.490;13.434;2024-01-16T06:30:32;2.30;99.90
20479;DHT22;10398;52.490;13.434;2024-01-16T06:32:58;2.30;99.90
20479;DHT22;10398;52.490;13.434;2024-01-16T06:35:24;2.30;99.90
20479;DHT22;10398;52.490;13.434;2024-01-16T06:37:49;2.20;99.90
20479;DHT22;10398;52.490;13.434;2024-01-16T06:40:15;2.20;99.90
20479;DHT22;10398;52.490;13.434;2024-01-16T06:42:41;2.20;99.90
20479;DHT22;10398;52.490;13.434;2024-01-16T06:45:07;2.10;99.90
20479;DHT22;10398;52.490;13.434;2024-01-16T06:47:33;2.10;99.90
20479;DHT22;10398;52.490;13.434;2024-01-16T06:49:58;2.10;99.90
20479;DHT22;10398;52.490;13.434;2024-01-16T06:52:24;2.10;99.90
20479;DHT22;10398;52.490;13.434;2024-01-16T06:54:50;2.20;99.90
20479;DHT22;10398;52.490;13.434;2024-01-16T06:57:16;2.20;99.90
20479;DHT22;10398;52.490;13.434;2024-01-16T06:59:41;2.20;99.90
20479;DHT22;10398;52.490;13.434;2024-01-16T07:02:07;2.20;99.90
20479;DHT22;10398;52.490;13.434;2024-01-16T07:04:33;2.20;99.90
20479;DHT22;10398;52.490;13.434;2024-01-16T07:06:59;2.20;99.90
20479;DHT22;10398;52.490;13.434;2024-01-16T07:09:25;2.10;99.90
20479;DHT22;10398;52.490;13.434;2024-01-16T07:11:52;2.20;99.90
20479;DHT22;10398;52.490;13.434;2024-01-16T07:14:18;2.20;99.90
20479;DHT22;10398;52.490;13.434;2024-01-16T07:16:45;2.10;99.90
20479;DHT22;10398;52.490;13.434;2024-01-16T07:19:12;2.20;99.90
20479;DHT22;10398;52.490;13.434;2024-01-16T07:21:38;2.30;99.90
20479;DHT22;10398;52.490;13.434;2024-01-16T07:24:04;2.40;99.90
20479;DHT22;10398;52.490;13.434;2024-01-16T07:26:30;2.60;99.90
20479;DHT22;10398;52.490;13.434;2024-01-16T07:28:55;2.70;99.90
20479;DHT22;10398;52.490;13.434;2024-01-16T07:31:21;2.60;99.90
20479;DHT22;10398;52.490;13.434;2024-01-16T07:33:47;2.60;99.90
20479;DHT22;10398;52.490;13.434;2024-01-16T07:36:14;2.60;99.90
20479;DHT22;10398;52.490;13.434;2024-01-16T07:38:40;2.50;99.90
20479;DHT22;10398;52.490;13.434;2024-01-16T07:41:06;2.50;99.90
20479;DHT22;10398;52.490;13.434;2024-01-16T07:43:32;2.60;99.90
20479;DHT22;10398;52.490;13.434;2024-01-16T07:46:01;2.60;99.90
20479;DHT22;10398;52.490;13.434;2024-01-16T07:48:27;2.60;99.90
20479;DHT22;10398;52.490;13.434;2024-01-16T07:50:52;2.60;99.90
20479;DHT22;10398;52.490;13.434;2024-01-16T07:53:18;2.60;99.90
20479;DHT22;10398;52.490;13.434;2024-01-16T07:55:44;2.50;99.90
20479;DHT22;10398;52.490;13.434;2024-01-16T07:58:13;2.50;99.90
20479;DHT22;10398;52.490;13.434;2024-01-16T08:00:39;2.50;99.90
20479;DHT22;10398;52.490;13.434;2024-01-16T08:03:07;2.50;99.90
20479;DHT22;10398;52.490;13.434;2024-01-16T08:05:34;2.50;99.90
20479;DHT22;10398;52.490;13.434;2024-01-16T08:07:59;2.50;99.90
20479;DHT22;10398;52.490;13.434;2024-01-16T08:10:25;2.50;99.90
20479;DHT22;10398;52.490;13.434;2024-01-16T08:12:54;2.40;99.90
20479;DHT22;10398;52.490;13.434;2024-01-16T08:15:21;2.40;99.90
20479;DHT22;10398;52.490;13.434;2024-01-16T08:17:47;2.40;99.90
20479;DHT22;10398;52.490;13.434;2024-01-16T08:20:13;2.40;99.90
20479;DHT22;10398;52.490;13.434;2024-01-16T08:22:39;2.30;99.90
20479;DHT22;10398;52.490;13.434;2024-01-16T08:25:10;2.20;99.90
20479;DHT22;10398;52.490;13.434;2024-01-16T08:27:36;2.30;99.90
20479;DHT22;10398;52.490;13.434;2024-01-16T08:30:06;2.30;99.90
20479;DHT22;10398;52.490;13.434;2024-01-16T08:32:32;2.20;99.90
20479;DHT22;10398;52.490;13.434;2024-01-16T08:34:58;2.30;99.90
20479;DHT22;10398;52.490;13.434;2024-01-16T08:37:24;2.40;99.90
20479;DHT22;10398;52.490;13.434;2024-01-16T08:39:53;2.40;99.90
20479;DHT22;10398;52.490;13.434;2024-01-16T08:42:22;2.50;99.90
20479;DHT22;10398;52.490;13.434;2024-01-16T08:44:47;2.50;99.90
20479;DHT22;10398;52.490;13.434;2024-01-16T08:47:13;2.60;99.90
20479;DHT22;10398;52.490;13.434;2024-01-16T08:49:38;2.50;99.90
20479;DHT22;10398;52.490;13.434;2024-01-16T08:52:05;2.60;99.90
20479;DHT22;10398;52.490;13.434;2024-01-16T08:54:31;2.50;99.90
20479;DHT22;10398;52.490;13.434;2024-01-16T08:56:59;2.60;99.90
20479;DHT22;10398;52.490;13.434;2024-01-16T08:59:25;2.70;99.90
20479;DHT22;10398;52.490;13.434;2024-01-16T09:01:51;2.60;99.90
20479;DHT22;10398;52.490;13.434;2024-01-16T09:04:17;2.60;99.90
20479;DHT22;10398;52.490;13.434;2024-01-16T09:06:43;2.60;99.90
20479;DHT22;10398;52.490;13.434;2024-01-16T09:09:08;2.70;99.90
20479;DHT22;10398;52.490;13.434;2024-01-16T09:11:34;2.60;99.90
20479;DHT22;10398;52.490;13.434;2024-01-16T09:14:00;2.70;99.90
20479;DHT22;10398;52.490;13.434;2024-01-16T09:16:25;2.80;99.90
20479;DHT22;10398;52.490;13.434;2024-01-16T09:18:51;2.80;99.90
20479;DHT22;10398;52.490;13.434;2024-01-16T09:21:17;2.70;99.90
20479;DHT22;10398;52.490;13.434;2024-01-16T09:23:42;2.80;99.90
20479;DHT22;10398;52.490;13.434;2024-01-16T09:26:09;2.80;99.90
20479;DHT22;10398;52.490;13.434;2024-01-16T09:28:36;2.70;99.90
20479;DHT22;10398;52.490;13.434;2024-01-16T09:31:01;2.60;99.90
20479;DHT22;10398;52.490;13.434;2024-01-16T09:33:27;2.50;99.90
20479;DHT22;10398;52.490;13.434;2024-01-16T09:35:53;2.60;99.90
20479;DHT22;10398;52.490;13.434;2024-01-16T09:38:19;2.60;99.90
20479;DHT22;10398;52.490;13.434;2024-01-16T09:40:44;2.70;99.90
20479;DHT22;10398;52.490;13.434;2024-01-16T09:43:11;2.70;99.90
20479;DHT22;10398;52.490;13.434;2024-01-16T09:45:38;2.80;99.90
20479;DHT22;10398;52.490;13.434;2024-01-16T09:48:07;2.80;99.90
20479;DHT22;10398;52.490;13.434;2024-01-16T09:50:33;2.80;99.90
20479;DHT22;10398;52.490;13.434;2024-01-16T09:52:59;2.80;99.90
20479;DHT22;10398;52.490;13.434;2024-01-16T09:55:25;2.80;99.90
20479;DHT22;10398;52.490;13.434;2024-01-16T09:57:53;2.80;99.90
20479;DHT22;10398;52.490;13.434;2024-01-16T10:00:20;2.80;99.90
20479;DHT22;10398;52.490;13.434;2024-01-16T10:02:46;2.80;99.90
20479;DHT22;10398;52.490;13.434;2024-01-16T10:05:13;2.90;99.90
20479;DHT22;10398;52.490;13.434;2024-01-16T10:07:40;2.90;99.90
20479;DHT22;10398;52.490;13.434;2024-01-16T10:10:07;2.90;99.90
20479;DHT22;10398;52.490;13.434;2024-01-16T10:12:36;2.90;99.90
20479;DHT22;10398;52.490;13.434;2024-01-16T10:15:04;2.90;99.90
20479;DHT22;10398;52.490;13.434;2024-01-16T10:17:38;2.80;99.90
20479;DHT22;10398;52.490;13.434;2024-01-16T10:20:05;2.80;99.90
20479;DHT22;10398;52.490;13.434;2024-01-16T10:22:31;2.80;99.90
20479;DHT22;10398;52.490;13.434;2024-01-16T10:25:07;2.70;99.90
20479;DHT22;10398;52.490;13.434;2024-01-16T10:27:34;2.80;99.90
20479;DHT22;10398;52.490;13.434;2024-01-16T10:30:00;2.90;99.90
20479;DHT22;10398;52.490;13.434;2024-01-16T10:32:30;2.90;99.90
20479;DHT22;10398;52.490;13.434;2024-01-16T10:37:30;3.10;99.90
20479;DHT22;10398;52.490;13.434;2024-01-16T10:39:56;3.10;99.90
20479;DHT22;10398;52.490;13.434;2024-01-16T10:42:22;3.10;99.90
20479;DHT22;10398;52.490;13.434;2024-01-16T10:44:54;3.00;99.90
20479;DHT22;10398;52.490;13.434;2024-01-16T10:47:22;3.00;99.90
20479;DHT22;10398;52.490;13.434;2024-01-16T10:49:48;3.10;99.90
20479;DHT22;10398;52.490;13.434;2024-01-16T10:52:14;3.20;99.90
20479;DHT22;10398;52.490;13.434;2024-01-16T10:54:43;3.30;99.90
20479;DHT22;10398;52.490;13.434;2024-01-16T10:57:15;3.40;99.90
20479;DHT22;10398;52.490;13.434;2024-01-16T11:00:00;3.40;99.90
20479;DHT22;10398;52.490;13.434;2024-01-16T11:02:43;3.50;99.90
20479;DHT22;10398;52.490;13.434;2024-01-16T11:05:11;3.50;99.90
20479;DHT22;10398;52.490;13.434;2024-01-16T11:07:37;3.60;99.90
20479;DHT22;10398;52.490;13.434;2024-01-16T11:10:06;3.60;99.90
20479;DHT22;10398;52.490;13.434;2024-01-16T11:12:33;3.50;99.90
20479;DHT22;10398;52.490;13.434;2024-01-16T11:15:00;3.50;99.90
20479;DHT22;10398;52.490;13.434;2024-01-16T11:17:33;3.60;99.90
20479;DHT22;10398;52.490;13.434;2024-01-16T11:20:00;3.50;99.90
20479;DHT22;10398;52.490;13.434;2024-01-16T11:22:31;3.40;99.90
20479;DHT22;10398;52.490;13.434;2024-01-16T11:25:14;3.40;99.90
20479;DHT22;10398;52.490;13.434;2024-01-16T11:27:41;3.40;99.90
20479;DHT22;10398;52.490;13.434;2024-01-16T11:30:11;3.30;99.90
20479;DHT22;10398;52.490;13.434;2024-01-16T11:32:41;3.40;99.90
20479;DHT22;10398;52.490;13.434;2024-01-16T11:35:10;3.30;99.90
20479;DHT22;10398;52.490;13.434;2024-01-16T11:37:41;3.40;99.90
20479;DHT22;10398;52.490;13.434;2024-01-16T11:42:44;3.30;99.90
20479;DHT22;10398;52.490;13.434;2024-01-16T11:48:14;3.20;99.90
20479;DHT22;10398;52.490;13.434;2024-01-16T11:50:41;3.20;99.90
20479;DHT22;10398;52.490;13.434;2024-01-16T11:53:10;3.20;99.90
20479;DHT22;10398;52.490;13.434;2024-01-16T11:56:20;3.10;99.90
20479;DHT22;10398;52.490;13.434;2024-01-16T11:59:13;3.10;99.90
20479;DHT22;10398;52.490;13.434;2024-01-16T12:01:44;3.00;99.90
20479;DHT22;10398;52.490;13.434;2024-01-16T12:04:10;3.20;99.90
20479;DHT22;10398;52.490;13.434;2024-01-16T12:06:37;3.10;99.90
20479;DHT22;10398;52.490;13.434;2024-01-16T12:09:16;3.20;99.90
20479;DHT22;10398;52.490;13.434;2024-01-16T12:11:43;3.20;99.90
20479;DHT22;10398;52.490;13.434;2024-01-16T12:14:11;3.30;99.90
20479;DHT22;10398;52.490;13.434;2024-01-16T12:16:37;3.30;99.90
20479;DHT22;10398;52.490;13.434;2024-01-16T12:19:10;3.30;99.90
20479;DHT22;10398;52.490;13.434;2024-01-16T12:21:39;3.30;99.90
20479;DHT22;10398;52.490;13.434;2024-01-16T12:24:06;3.30;99.90
20479;DHT22;10398;52.490;13.434;2024-01-16T12:26:32;3.20;99.90
20479;DHT22;10398;52.490;13.434;2024-01-16T12:28:57;3.20;99.90
20479;DHT22;10398;52.490;13.434;2024-01-16T12:31:23;3.20;99.90
20479;DHT22;10398;52.490;13.434;2024-01-16T12:33:53;3.20;99.90
20479;DHT22;10398;52.490;13.434;2024-01-16T12:36:18;3.10;99.90
20479;DHT22;10398;52.490;13.434;2024-01-16T12:38:44;3.00;99.90
20479;DHT22;10398;52.490;13.434;2024-01-16T12:41:11;3.10;99.90
20479;DHT22;10398;52.490;13.434;2024-01-16T12:43:37;3.10;99.90
20479;DHT22;10398;52.490;13.434;2024-01-16T12:46:04;3.10;99.90
20479;DHT22;10398;52.490;13.434;2024-01-16T12:48:31;3.20;99.90
20479;DHT22;10398;52.490;13.434;2024-01-16T12:51:03;3.30;99.90
20479;DHT22;10398;52.490;13.434;2024-01-16T12:53:29;3.40;99.90
20479;DHT22;10398;52.490;13.434;2024-01-16T12:55:58;3.30;99.90
20479;DHT22;10398;52.490;13.434;2024-01-16T12:58:25;3.40;99.90
20479;DHT22;10398;52.490;13.434;2024-01-16T13:00:53;3.30;99.90
20479;DHT22;10398;52.490;13.434;2024-01-16T13:03:22;3.30;99.90
20479;DHT22;10398;52.490;13.434;2024-01-16T13:05:56;3.30;99.90
20479;DHT22;10398;52.490;13.434;2024-01-16T13:08:22;3.20;99.90
20479;DHT22;10398;52.490;13.434;2024-01-16T13:11:04;3.20;99.90
20479;DHT22;10398;52.490;13.434;2024-01-16T13:13:30;3.30;99.90
20479;DHT22;10398;52.490;13.434;2024-01-16T13:15:56;3.10;99.90
20479;DHT22;10398;52.490;13.434;2024-01-16T13:18:27;3.20;99.90
20479;DHT22;10398;52.490;13.434;2024-01-16T13:20:55;3.20;99.90
20479;DHT22;10398;52.490;13.434;2024-01-16T13:23:21;3.30;99.90
20479;DHT22;10398;52.490;13.434;2024-01-16T13:25:48;3.30;99.90
20479;DHT22;10398;52.490;13.434;2024-01-16T13:28:14;3.30;99.90
20479;DHT22;10398;52.490;13.434;2024-01-16T13:30:44;3.20;99.90
20479;DHT22;10398;52.490;13.434;2024-01-16T13:33:10;3.20;99.90
20479;DHT22;10398;52.490;13.434;2024-01-16T13:35:55;3.30;99.90
20479;DHT22;10398;52.490;13.434;2024-01-16T13:38:20;3.40;99.90
20479;DHT22;10398;52.490;13.434;2024-01-16T13:40:46;3.40;99.90
20479;DHT22;10398;52.490;13.434;2024-01-16T13:43:12;3.30;99.90
20479;DHT22;10398;52.490;13.434;2024-01-16T13:45:39;3.40;99.90
20479;DHT22;10398;52.490;13.434;2024-01-16T13:48:05;3.30;99.90
20479;DHT22;10398;52.490;13.434;2024-01-16T13:50:34;3.30;99.90
20479;DHT22;10398;52.490;13.434;2024-01-16T13:53:02;3.30;99.90
20479;DHT22;10398;52.490;13.434;2024-01-16T13:55:28;3.30;99.90
20479;DHT22;10398;52.490;13.434;2024-01-16T13:57:55;3.40;99.90
20479;DHT22;10398;52.490;13.434;2024-01-16T14:00:21;3.40;99.90
20479;DHT22;10398;52.490;13.434;2024-01-16T14:02:47;3.40;99.90
20479;DHT22;10398;52.490;13.434;2024-01-16T14:05:17;3.50;99.90
20479;DHT22;10398;52.490;13.434;2024-01-16T14:07:48;3.50;99.90
20479;DHT22;10398;52.490;13.434;2024-01-16T14:10:16;3.50;99.90
20479;DHT22;10398;52.490;13.434;2024-01-16T14:12:43;3.40;99.90
20479;DHT22;10398;52.490;13.434;2024-01-16T14:15:15;3.40;99.90
20479;DHT22;10398;52.490;13.434;2024-01-16T14:17:55;3.30;99.90
20479;DHT22;10398;52.490;13.434;2024-01-16T14:20:23;3.30;99.90
20479;DHT22;10398;52.490;13.434;2024-01-16T14:22:56;3.40;99.90
20479;DHT22;10398;52.490;13.434;2024-01-16T14:25:22;3.30;99.90
20479;DHT22;10398;52.490;13.434;2024-01-16T14:28:06;3.30;99.90
20479;DHT22;10398;52.490;13.434;2024-01-16T14:30:33;3.30;99.90
20479;DHT22;10398;52.490;13.434;2024-01-16T14:32:59;3.40;99.90
20479;DHT22;10398;52.490;13.434;2024-01-16T14:35:25;3.50;99.90
20479;DHT22;10398;52.490;13.434;2024-01-16T14:37:51;3.60;99.90
20479;DHT22;10398;52.490;13.434;2024-01-16T14:40:17;3.50;99.90
20479;DHT22;10398;52.490;13.434;2024-01-16T14:42:47;3.50;99.90
20479;DHT22;10398;52.490;13.434;2024-01-16T14:45:31;3.50;99.90
20479;DHT22;10398;52.490;13.434;2024-01-16T14:47:57;3.40;99.90
20479;DHT22;10398;52.490;13.434;2024-01-16T14:50:23;3.40;99.90
20479;DHT22;10398;52.490;13.434;2024-01-16T14:52:50;3.30;99.90
20479;DHT22;10398;52.490;13.434;2024-01-16T14:55:16;3.20;99.90
20479;DHT22;10398;52.490;13.434;2024-01-16T14:57:42;3.20;99.90
20479;DHT22;10398;52.490;13.434;2024-01-16T15:00:10;3.30;99.90
20479;DHT22;10398;52.490;13.434;2024-01-16T15:02:54;3.30;99.90
20479;DHT22;10398;52.490;13.434;2024-01-16T15:05:20;3.40;99.90
20479;DHT22;10398;52.490;13.434;2024-01-16T15:07:50;3.40;99.90
20479;DHT22;10398;52.490;13.434;2024-01-16T15:10:21;3.20;99.90
20479;DHT22;10398;52.490;13.434;2024-01-16T15:12:48;3.20;99.90
20479;DHT22;10398;52.490;13.434;2024-01-16T15:15:15;3.20;99.90
20479;DHT22;10398;52.490;13.434;2024-01-16T15:17:44;3.10;99.90
20479;DHT22;10398;52.490;13.434;2024-01-16T15:20:10;3.10;99.90
20479;DHT22;10398;52.490;13.434;2024-01-16T15:22:40;3.20;99.90
20479;DHT22;10398;52.490;13.434;2024-01-16T15:25:06;3.10;99.90
20479;DHT22;10398;52.490;13.434;2024-01-16T15:27:32;3.10;99.90
20479;DHT22;10398;52.490;13.434;2024-01-16T15:29:58;3.30;99.90
20479;DHT22;10398;52.490;13.434;2024-01-16T15:32:27;3.40;99.90
20479;DHT22;10398;52.490;13.434;2024-01-16T15:34:53;3.40;99.90
20479;DHT22;10398;52.490;13.434;2024-01-16T15:37:19;3.40;99.90